createdAt,value
2017-09-19T00:04:57.000Z,19.23
2017-09-19T00:14:58.000Z,19.23
2017-09-19T00:24:57.000Z,19.2
2017-09-19T00:34:57.000Z,19.18
2017-09-19T00:44:57.000Z,19.18
2017-09-19T00:54:57.000Z,19.16
2017-09-19T01:04:57.000Z,19.16
2017-09-19T01:14:57.000Z,19.15
2017-09-19T01:24:57.000Z,19.14
2017-09-19T01:34:57.000Z,19.18
2017-09-19T01:44:57.000Z,19.18
2017-09-19T01:54:57.000Z,19.19
2017-09-19T02:14:57.000Z,19.18
2017-09-19T02:24:58.000Z,19.17
2017-09-19T02:34:58.000Z,19.19
2017-09-19T02:44:58.000Z,19.18
2017-09-19T02:54:58.000Z,19.16
2017-09-19T03:04:58.000Z,19.15
2017-09-19T03:14:58.000Z,19.16
2017-09-19T03:24:58.000Z,19.13
2017-09-19T03:34:58.000Z,19.15
2017-09-19T03:44:58.000Z,19.14
2017-09-19T03:54:58.000Z,19.13
2017-09-19T04:04:58.000Z,19.13
2017-09-19T04:14:58.000Z,19.12
2017-09-19T04:24:58.000Z,19.12
2017-09-19T04:34:58.000Z,19.11
2017-09-19T04:44:58.000Z,19.11
2017-09-19T04:54:58.000Z,19.09
2017-09-19T05:04:58.000Z,19.09
2017-09-19T05:14:58.000Z,19.07
2017-09-19T05:24:58.000Z,19.07
2017-09-19T05:34:58.000Z,19.07
2017-09-19T05:44:58.000Z,19.06
2017-09-19T05:54:58.000Z,19.05
2017-09-19T06:04:58.000Z,19.07
2017-09-19T06:14:58.000Z,19.07
2017-09-19T06:24:58.000Z,19.06
2017-09-19T06:34:58.000Z,19.04
2017-09-19T06:44:58.000Z,19.12
2017-09-19T06:54:58.000Z,19.13
2017-09-19T07:04:58.000Z,19.1
2017-09-19T07:14:58.000Z,19.12
2017-09-19T07:24:58.000Z,19.17
2017-09-19T07:34:58.000Z,19.16
2017-09-19T07:44:58.000Z,19.15
2017-09-19T07:54:58.000Z,19.16
2017-09-19T08:04:58.000Z,19.19
2017-09-19T08:14:58.000Z,19.28
2017-09-19T08:24:58.000Z,19.37
2017-09-19T08:34:58.000Z,19.32
2017-09-19T08:44:58.000Z,19.35
2017-09-19T08:54:58.000Z,19.48
2017-09-19T09:04:58.000Z,19.59
2017-09-19T09:14:58.000Z,19.59
2017-09-19T09:24:58.000Z,19.57
2017-09-19T09:34:58.000Z,19.59
2017-09-19T09:44:58.000Z,19.62
2017-09-19T09:54:58.000Z,19.69
2017-09-19T10:04:58.000Z,19.8
2017-09-19T10:14:59.000Z,19.76
2017-09-19T10:24:59.000Z,19.8
2017-09-19T10:34:59.000Z,19.84
2017-09-19T10:44:59.000Z,20
2017-09-19T10:54:59.000Z,20.18
2017-09-19T11:04:59.000Z,20.21
2017-09-19T11:14:59.000Z,20.32
2017-09-19T11:24:59.000Z,20.29
2017-09-19T11:34:59.000Z,20.22
2017-09-19T11:44:59.000Z,20.23
2017-09-19T11:54:59.000Z,20.28
2017-09-19T12:04:59.000Z,20.37
2017-09-19T12:14:59.000Z,20.35
2017-09-19T12:24:59.000Z,20.35
2017-09-19T12:34:59.000Z,20.37
2017-09-19T12:44:59.000Z,20.33
2017-09-19T12:54:59.000Z,20.46
2017-09-19T13:04:59.000Z,20.43
2017-09-19T13:14:59.000Z,20.49
2017-09-19T13:24:59.000Z,20.42
2017-09-19T13:34:59.000Z,20.46
2017-09-19T13:44:59.000Z,20.46
2017-09-19T13:54:59.000Z,20.43
2017-09-19T14:04:59.000Z,20.43
2017-09-19T14:14:59.000Z,20.43
2017-09-19T14:24:59.000Z,20.45
2017-09-19T14:34:59.000Z,20.47
2017-09-19T14:44:59.000Z,20.49
2017-09-19T14:54:59.000Z,20.48
2017-09-19T15:04:59.000Z,20.49
2017-09-19T15:14:59.000Z,20.46
2017-09-19T15:24:59.000Z,20.53
2017-09-19T15:34:59.000Z,20.56
2017-09-19T15:44:59.000Z,20.52
2017-09-19T15:54:59.000Z,20.5
2017-09-19T16:04:59.000Z,20.5
2017-09-19T16:14:59.000Z,20.48
2017-09-19T16:24:59.000Z,20.49
2017-09-19T16:34:59.000Z,20.48
2017-09-19T16:54:59.000Z,20.42
2017-09-19T17:04:59.000Z,20.42
2017-09-19T17:14:59.000Z,20.4
2017-09-19T17:24:59.000Z,20.37
2017-09-19T17:34:59.000Z,20.38
2017-09-19T17:44:59.000Z,20.36
2017-09-19T17:55:00.000Z,20.36
2017-09-19T18:05:00.000Z,20.39
2017-09-19T18:15:00.000Z,20.38
2017-09-19T18:25:00.000Z,20.36
2017-09-19T18:35:00.000Z,20.36
2017-09-19T18:45:00.000Z,20.35
2017-09-19T18:55:00.000Z,20.35
2017-09-19T19:05:00.000Z,20.37
2017-09-19T19:15:00.000Z,20.42
2017-09-19T19:25:00.000Z,20.39
2017-09-19T19:35:00.000Z,20.33
2017-09-19T19:45:00.000Z,20.41
2017-09-19T19:55:00.000Z,20.47
2017-09-19T20:05:00.000Z,20.45
2017-09-19T20:15:00.000Z,20.42
2017-09-19T20:25:00.000Z,20.42
2017-09-19T20:35:00.000Z,20.37
2017-09-19T20:45:00.000Z,20.32
2017-09-19T20:55:00.000Z,20.25
2017-09-19T21:05:00.000Z,20.22
2017-09-19T21:15:00.000Z,20.18
2017-09-19T21:25:00.000Z,20.14
2017-09-19T21:35:00.000Z,20.11
2017-09-19T21:45:00.000Z,20.06
2017-09-19T21:55:00.000Z,20.06
2017-09-19T22:05:00.000Z,20.02
2017-09-19T22:15:00.000Z,19.99
2017-09-19T22:25:00.000Z,19.97
2017-09-19T22:35:00.000Z,19.93
2017-09-19T22:45:00.000Z,19.9
2017-09-19T22:55:00.000Z,19.89
2017-09-19T23:05:00.000Z,19.84
2017-09-19T23:15:00.000Z,19.83
2017-09-19T23:25:00.000Z,19.8
2017-09-19T23:35:00.000Z,19.79
2017-09-19T23:45:00.000Z,19.76
2017-09-19T23:55:00.000Z,19.75
